sensor_id;sensor_type;location;lat;lon;timestamp;temperature;humidity
758;DHT22;363;48.764;9.172;2023-11-21T00:00:09;10.40;99.90
758;DHT22;363;48.764;9.172;2023-11-21T00:02:38;10.10;99.90
758;DHT22;363;48.764;9.172;2023-11-21T00:05:06;10.30;99.90
758;DHT22;363;48.764;9.172;2023-11-21T00:07:33;10.00;99.90
758;DHT22;363;48.764;9.172;2023-11-21T00:09:59;9.90;99.90
758;DHT22;363;48.764;9.172;2023-11-21T00:12:24;9.90;99.90
758;DHT22;363;48.764;9.172;2023-11-21T00:14:50;10.50;99.90
758;DHT22;363;48.764;9.172;2023-11-21T00:17:15;9.90;99.90
758;DHT22;363;48.764;9.172;2023-11-21T00:19:41;10.10;99.90
758;DHT22;363;48.764;9.172;2023-11-21T00:22:08;10.00;99.90
758;DHT22;363;48.764;9.172;2023-11-21T00:24:34;10.00;99.90
758;DHT22;363;48.764;9.172;2023-11-21T00:27:00;10.40;99.90
758;DHT22;363;48.764;9.172;2023-11-21T00:29:25;10.10;99.90
758;DHT22;363;48.764;9.172;2023-11-21T00:31:51;9.90;99.90
758;DHT22;363;48.764;9.172;2023-11-21T00:34:17;10.10;99.90
758;DHT22;363;48.764;9.172;2023-11-21T00:36:42;10.00;99.90
758;DHT22;363;48.764;9.172;2023-11-21T00:39:08;10.40;99.90
758;DHT22;363;48.764;9.172;2023-11-21T00:41:34;9.70;99.90
758;DHT22;363;48.764;9.172;2023-11-21T00:44:00;10.00;99.90
758;DHT22;363;48.764;9.172;2023-11-21T00:46:26;9.80;99.90
758;DHT22;363;48.764;9.172;2023-11-21T00:48:55;10.40;99.90
758;DHT22;363;48.764;9.172;2023-11-21T00:51:21;10.00;99.90
758;DHT22;363;48.764;9.172;2023-11-21T00:53:48;10.00;99.90
758;DHT22;363;48.764;9.172;2023-11-21T00:56:14;10.50;99.90
758;DHT22;363;48.764;9.172;2023-11-21T00:58:40;10.30;99.90
758;DHT22;363;48.764;9.172;2023-11-21T01:01:11;10.40;99.90
758;DHT22;363;48.764;9.172;2023-11-21T01:03:37;10.30;99.90
758;DHT22;363;48.764;9.172;2023-11-21T01:06:03;10.10;99.90
758;DHT22;363;48.764;9.172;2023-11-21T01:08:29;10.10;99.90
758;DHT22;363;48.764;9.172;2023-11-21T01:10:56;10.40;99.90
758;DHT22;363;48.764;9.172;2023-11-21T01:13:22;9.90;99.90
758;DHT22;363;48.764;9.172;2023-11-21T01:15:47;10.00;99.90
758;DHT22;363;48.764;9.172;2023-11-21T01:18:13;10.30;99.90
758;DHT22;363;48.764;9.172;2023-11-21T01:20:38;10.10;99.90
758;DHT22;363;48.764;9.172;2023-11-21T01:23:04;10.20;99.90
758;DHT22;363;48.764;9.172;2023-11-21T01:25:30;10.30;99.90
758;DHT22;363;48.764;9.172;2023-11-21T01:27:55;10.00;99.90
758;DHT22;363;48.764;9.172;2023-11-21T01:30:21;9.80;99.90
758;DHT22;363;48.764;9.172;2023-11-21T01:32:47;9.90;99.90
758;DHT22;363;48.764;9.172;2023-11-21T01:35:13;10.00;99.90
758;DHT22;363;48.764;9.172;2023-11-21T01:37:38;9.70;99.90
758;DHT22;363;48.764;9.172;2023-11-21T01:40:04;9.60;99.90
758;DHT22;363;48.764;9.172;2023-11-21T01:42:36;10.00;99.90
758;DHT22;363;48.764;9.172;2023-11-21T01:45:02;10.50;99.90
758;DHT22;363;48.764;9.172;2023-11-21T01:47:33;9.90;99.90
758;DHT22;363;48.764;9.172;2023-11-21T01:50:01;9.90;99.90
758;DHT22;363;48.764;9.172;2023-11-21T01:52:27;10.00;99.90
758;DHT22;363;48.764;9.172;2023-11-21T01:54:53;10.40;99.90
758;DHT22;363;48.764;9.172;2023-11-21T01:57:20;9.90;99.90
758;DHT22;363;48.764;9.172;2023-11-21T01:59:47;10.20;99.90
758;DHT22;363;48.764;9.172;2023-11-21T02:02:14;10.10;99.90
758;DHT22;363;48.764;9.172;2023-11-21T02:04:39;10.50;99.90
758;DHT22;363;48.764;9.172;2023-11-21T02:07:05;10.50;99.90
758;DHT22;363;48.764;9.172;2023-11-21T02:09:30;10.60;99.90
758;DHT22;363;48.764;9.172;2023-11-21T02:11:58;10.10;99.90
758;DHT22;363;48.764;9.172;2023-11-21T02:14:27;10.00;99.90
758;DHT22;363;48.764;9.172;2023-11-21T02:16:54;10.30;99.90
758;DHT22;363;48.764;9.172;2023-11-21T02:19:20;10.60;99.90
758;DHT22;363;48.764;9.172;2023-11-21T02:21:49;10.30;99.90
758;DHT22;363;48.764;9.172;2023-11-21T02:24:15;10.50;99.90
758;DHT22;363;48.764;9.172;2023-11-21T02:26:42;10.10;99.90
758;DHT22;363;48.764;9.172;2023-11-21T02:29:08;10.10;99.90
758;DHT22;363;48.764;9.172;2023-11-21T02:31:37;10.40;99.90
758;DHT22;363;48.764;9.172;2023-11-21T02:34:11;10.20;99.90
758;DHT22;363;48.764;9.172;2023-11-21T02:36:38;10.40;99.90
758;DHT22;363;48.764;9.172;2023-11-21T02:39:04;10.10;99.90
758;DHT22;363;48.764;9.172;2023-11-21T02:41:30;10.30;99.90
758;DHT22;363;48.764;9.172;2023-11-21T02:43:55;10.60;99.90
758;DHT22;363;48.764;9.172;2023-11-21T02:46:21;10.20;99.90
758;DHT22;363;48.764;9.172;2023-11-21T02:48:47;10.60;99.90
758;DHT22;363;48.764;9.172;2023-11-21T02:51:13;10.60;99.90
758;DHT22;363;48.764;9.172;2023-11-21T02:53:41;9.80;99.90
758;DHT22;363;48.764;9.172;2023-11-21T02:56:06;10.00;99.90
758;DHT22;363;48.764;9.172;2023-11-21T02:58:32;10.10;99.90
758;DHT22;363;48.764;9.172;2023-11-21T03:00:58;10.10;99.90
758;DHT22;363;48.764;9.172;2023-11-21T03:03:23;10.50;99.90
758;DHT22;363;48.764;9.172;2023-11-21T03:05:50;10.00;99.90
758;DHT22;363;48.764;9.172;2023-11-21T03:08:15;10.10;99.90
758;DHT22;363;48.764;9.172;2023-11-21T03:10:41;10.40;99.90
758;DHT22;363;48.764;9.172;2023-11-21T03:13:06;9.80;99.90
758;DHT22;363;48.764;9.172;2023-11-21T03:15:32;10.20;99.90
758;DHT22;363;48.764;9.172;2023-11-21T03:17:58;10.10;99.90
758;DHT22;363;48.764;9.172;2023-11-21T03:20:23;10.00;99.90
758;DHT22;363;48.764;9.172;2023-11-21T03:22:49;9.90;99.90
758;DHT22;363;48.764;9.172;2023-11-21T03:25:15;10.20;99.90
758;DHT22;363;48.764;9.172;2023-11-21T03:27:42;10.10;99.90
758;DHT22;363;48.764;9.172;2023-11-21T03:30:10;9.70;99.90
758;DHT22;363;48.764;9.172;2023-11-21T03:32:36;9.90;99.90
758;DHT22;363;48.764;9.172;2023-11-21T03:35:02;9.60;99.90
758;DHT22;363;48.764;9.172;2023-11-21T03:37:28;9.80;99.90
758;DHT22;363;48.764;9.172;2023-11-21T03:39:55;10.10;99.90
758;DHT22;363;48.764;9.172;2023-11-21T03:42:21;10.10;99.90
758;DHT22;363;48.764;9.172;2023-11-21T03:44:47;9.70;99.90
758;DHT22;363;48.764;9.172;2023-11-21T03:47:12;9.70;99.90
758;DHT22;363;48.764;9.172;2023-11-21T03:49:38;9.80;99.90
758;DHT22;363;48.764;9.172;2023-11-21T03:52:03;9.90;99.90
758;DHT22;363;48.764;9.172;2023-11-21T03:54:29;9.90;99.90
758;DHT22;363;48.764;9.172;2023-11-21T03:56:55;10.10;99.90
758;DHT22;363;48.764;9.172;2023-11-21T03:59:20;10.10;99.90
758;DHT22;363;48.764;9.172;2023-11-21T04:01:46;9.80;99.90
758;DHT22;363;48.764;9.172;2023-11-21T04:04:11;9.90;99.90
758;DHT22;363;48.764;9.172;2023-11-21T04:06:37;10.20;99.90
758;DHT22;363;48.764;9.172;2023-11-21T04:09:03;9.80;99.90
758;DHT22;363;48.764;9.172;2023-11-21T04:11:30;9.80;99.90
758;DHT22;363;48.764;9.172;2023-11-21T04:13:55;9.50;99.90
758;DHT22;363;48.764;9.172;2023-11-21T04:16:21;9.70;99.90
758;DHT22;363;48.764;9.172;2023-11-21T04:18:48;9.70;99.90
758;DHT22;363;48.764;9.172;2023-11-21T04:21:14;9.60;99.90
758;DHT22;363;48.764;9.172;2023-11-21T04:23:39;10.00;99.90
758;DHT22;363;48.764;9.172;2023-11-21T04:26:05;9.50;99.90
758;DHT22;363;48.764;9.172;2023-11-21T04:28:31;9.40;99.90
758;DHT22;363;48.764;9.172;2023-11-21T04:30:56;9.90;99.90
758;DHT22;363;48.764;9.172;2023-11-21T04:33:22;9.50;99.90
758;DHT22;363;48.764;9.172;2023-11-21T04:35:48;9.40;99.90
758;DHT22;363;48.764;9.172;2023-11-21T04:38:13;9.40;99.90
758;DHT22;363;48.764;9.172;2023-11-21T04:40:39;9.40;99.90
758;DHT22;363;48.764;9.172;2023-11-21T04:43:04;9.70;99.90
758;DHT22;363;48.764;9.172;2023-11-21T04:45:30;9.50;99.90
758;DHT22;363;48.764;9.172;2023-11-21T04:47:56;9.60;99.90
758;DHT22;363;48.764;9.172;2023-11-21T04:50:21;9.70;99.90
758;DHT22;363;48.764;9.172;2023-11-21T04:52:47;9.60;99.90
758;DHT22;363;48.764;9.172;2023-11-21T04:55:12;9.50;99.90
758;DHT22;363;48.764;9.172;2023-11-21T04:57:38;9.50;99.90
758;DHT22;363;48.764;9.172;2023-11-21T05:00:07;9.90;99.90
758;DHT22;363;48.764;9.172;2023-11-21T05:02:33;9.50;99.90
758;DHT22;363;48.764;9.172;2023-11-21T05:05:04;9.70;99.90
758;DHT22;363;48.764;9.172;2023-11-21T05:07:32;9.40;99.90
758;DHT22;363;48.764;9.172;2023-11-21T05:09:57;9.50;99.90
758;DHT22;363;48.764;9.172;2023-11-21T05:12:24;9.40;99.90
758;DHT22;363;48.764;9.172;2023-11-21T05:14:50;9.40;99.90
758;DHT22;363;48.764;9.172;2023-11-21T05:17:16;9.50;99.90
758;DHT22;363;48.764;9.172;2023-11-21T05:19:42;9.50;99.90
758;DHT22;363;48.764;9.172;2023-11-21T05:22:08;9.60;99.90
758;DHT22;363;48.764;9.172;2023-11-21T05:24:34;9.70;99.90
758;DHT22;363;48.764;9.172;2023-11-21T05:27:00;9.60;99.90
758;DHT22;363;48.764;9.172;2023-11-21T05:29:25;9.50;99.90
758;DHT22;363;48.764;9.172;2023-11-21T05:31:51;9.80;99.90
758;DHT22;363;48.764;9.172;2023-11-21T05:34:18;9.70;99.90
758;DHT22;363;48.764;9.172;2023-11-21T05:36:44;10.10;99.90
758;DHT22;363;48.764;9.172;2023-11-21T05:39:13;10.30;99.90
758;DHT22;363;48.764;9.172;2023-11-21T05:41:39;9.80;99.90
758;DHT22;363;48.764;9.172;2023-11-21T05:44:04;9.90;99.90
758;DHT22;363;48.764;9.172;2023-11-21T05:46:30;9.70;99.90
758;DHT22;363;48.764;9.172;2023-11-21T05:48:56;10.10;99.90
758;DHT22;363;48.764;9.172;2023-11-21T05:51:22;10.20;99.90
758;DHT22;363;48.764;9.172;2023-11-21T05:53:47;9.90;99.90
758;DHT22;363;48.764;9.172;2023-11-21T05:56:13;10.10;99.90
758;DHT22;363;48.764;9.172;2023-11-21T05:58:39;9.60;99.90
758;DHT22;363;48.764;9.172;2023-11-21T06:01:06;10.10;99.90
758;DHT22;363;48.764;9.172;2023-11-21T06:03:35;9.60;99.90
758;DHT22;363;48.764;9.172;2023-11-21T06:06:00;9.50;99.90
758;DHT22;363;48.764;9.172;2023-11-21T06:08:26;9.50;99.90
758;DHT22;363;48.764;9.172;2023-11-21T06:10:51;10.00;99.90
758;DHT22;363;48.764;9.172;2023-11-21T06:13:17;9.60;99.90
758;DHT22;363;48.764;9.172;2023-11-21T06:15:46;9.70;99.90
758;DHT22;363;48.764;9.172;2023-11-21T06:18:11;9.00;99.90
758;DHT22;363;48.764;9.172;2023-11-21T06:20:37;9.80;99.90
758;DHT22;363;48.764;9.172;2023-11-21T06:23:02;9.20;99.90
758;DHT22;363;48.764;9.172;2023-11-21T06:25:29;9.50;99.90
758;DHT22;363;48.764;9.172;2023-11-21T06:27:58;9.60;99.90
758;DHT22;363;48.764;9.172;2023-11-21T06:30:25;9.80;99.90
758;DHT22;363;48.764;9.172;2023-11-21T06:32:51;9.50;99.90
758;DHT22;363;48.764;9.172;2023-11-21T06:35:18;9.50;99.90
758;DHT22;363;48.764;9.172;2023-11-21T06:37:43;9.40;99.90
758;DHT22;363;48.764;9.172;2023-11-21T06:40:15;9.40;99.90
758;DHT22;363;48.764;9.172;2023-11-21T06:42:41;9.30;99.90
758;DHT22;363;48.764;9.172;2023-11-21T06:45:07;9.60;99.90
758;DHT22;363;48.764;9.172;2023-11-21T06:47:33;9.60;99.90
758;DHT22;363;48.764;9.172;2023-11-21T06:49:59;9.80;99.90
758;DHT22;363;48.764;9.172;2023-11-21T06:52:26;9.60;99.90
758;DHT22;363;48.764;9.172;2023-11-21T06:54:51;9.60;99.90
758;DHT22;363;48.764;9.172;2023-11-21T06:57:17;9.70;99.90
758;DHT22;363;48.764;9.172;2023-11-21T06:59:43;9.60;99.90
758;DHT22;363;48.764;9.172;2023-11-21T07:02:09;9.80;99.90
758;DHT22;363;48.764;9.172;2023-11-21T07:04:35;10.60;99.90
758;DHT22;363;48.764;9.172;2023-11-21T07:07:02;9.70;99.90
758;DHT22;363;48.764;9.172;2023-11-21T07:09:28;9.80;99.90
758;DHT22;363;48.764;9.172;2023-11-21T07:11:55;9.80;99.90
758;DHT22;363;48.764;9.172;2023-11-21T07:14:20;9.80;99.90
758;DHT22;363;48.764;9.172;2023-11-21T07:16:46;10.00;99.90
758;DHT22;363;48.764;9.172;2023-11-21T07:19:13;10.20;99.90
758;DHT22;363;48.764;9.172;2023-11-21T07:21:39;9.50;99.90
758;DHT22;363;48.764;9.172;2023-11-21T07:24:06;10.10;99.90
758;DHT22;363;48.764;9.172;2023-11-21T07:26:33;10.00;99.90
758;DHT22;363;48.764;9.172;2023-11-21T07:28:59;9.70;99.90
758;DHT22;363;48.764;9.172;2023-11-21T07:31:25;10.40;99.90
758;DHT22;363;48.764;9.172;2023-11-21T07:33:51;9.70;99.90
758;DHT22;363;48.764;9.172;2023-11-21T07:36:17;10.20;99.90
758;DHT22;363;48.764;9.172;2023-11-21T07:38:46;9.90;99.90
758;DHT22;363;48.764;9.172;2023-11-21T07:41:13;9.70;99.90
758;DHT22;363;48.764;9.172;2023-11-21T07:43:41;9.70;99.90
758;DHT22;363;48.764;9.172;2023-11-21T07:46:07;9.60;99.90
758;DHT22;363;48.764;9.172;2023-11-21T07:48:33;9.80;99.90
758;DHT22;363;48.764;9.172;2023-11-21T07:51:02;9.60;99.90
758;DHT22;363;48.764;9.172;2023-11-21T07:53:32;10.20;99.90
758;DHT22;363;48.764;9.172;2023-11-21T07:56:00;9.90;99.90
758;DHT22;363;48.764;9.172;2023-11-21T07:58:27;10.10;99.90
758;DHT22;363;48.764;9.172;2023-11-21T08:00:53;10.40;99.90
758;DHT22;363;48.764;9.172;2023-11-21T08:03:19;10.40;99.90
758;DHT22;363;48.764;9.172;2023-11-21T08:05:45;10.50;99.90
758;DHT22;363;48.764;9.172;2023-11-21T08:08:10;10.50;99.90
758;DHT22;363;48.764;9.172;2023-11-21T08:10:38;10.20;99.90
758;DHT22;363;48.764;9.172;2023-11-21T08:15:34;10.30;99.90
758;DHT22;363;48.764;9.172;2023-11-21T08:18:02;10.40;99.90
758;DHT22;363;48.764;9.172;2023-11-21T08:20:27;10.40;99.90
758;DHT22;363;48.764;9.172;2023-11-21T08:22:53;10.40;99.90
758;DHT22;363;48.764;9.172;2023-11-21T08:25:20;10.40;99.90
758;DHT22;363;48.764;9.172;2023-11-21T08:27:47;10.70;99.90
758;DHT22;363;48.764;9.172;2023-11-21T08:30:13;11.70;99.90
758;DHT22;363;48.764;9.172;2023-11-21T08:32:39;10.60;99.90
758;DHT22;363;48.764;9.172;2023-11-21T08:35:07;10.70;99.90
758;DHT22;363;48.764;9.172;2023-11-21T08:37:33;10.20;99.90
758;DHT22;363;48.764;9.172;2023-11-21T08:40:03;10.40;99.90
758;DHT22;363;48.764;9.172;2023-11-21T08:42:29;10.50;99.90
758;DHT22;363;48.764;9.172;2023-11-21T08:44:55;10.60;99.90
758;DHT22;363;48.764;9.172;2023-11-21T08:47:23;10.10;99.90
758;DHT22;363;48.764;9.172;2023-11-21T08:49:50;10.70;99.90
758;DHT22;363;48.764;9.172;2023-11-21T08:52:18;11.40;99.90
758;DHT22;363;48.764;9.172;2023-11-21T08:54:44;11.70;99.90
758;DHT22;363;48.764;9.172;2023-11-21T08:57:11;10.90;99.90
758;DHT22;363;48.764;9.172;2023-11-21T08:59:36;10.80;99.90
758;DHT22;363;48.764;9.172;2023-11-21T09:02:02;10.90;99.90
758;DHT22;363;48.764;9.172;2023-11-21T09:04:28;11.20;99.90
758;DHT22;363;48.764;9.172;2023-11-21T09:06:53;11.30;99.90
758;DHT22;363;48.764;9.172;2023-11-21T09:09:19;11.30;99.90
758;DHT22;363;48.764;9.172;2023-11-21T09:11:46;12.00;99.90
758;DHT22;363;48.764;9.172;2023-11-21T09:14:14;12.30;99.90
758;DHT22;363;48.764;9.172;2023-11-21T09:16:41;12.30;99.90
758;DHT22;363;48.764;9.172;2023-11-21T09:19:07;12.20;99.90
758;DHT22;363;48.764;9.172;2023-11-21T09:21:32;12.40;99.90
758;DHT22;363;48.764;9.172;2023-11-21T09:23:59;12.90;99.90
758;DHT22;363;48.764;9.172;2023-11-21T09:26:25;12.70;99.90
758;DHT22;363;48.764;9.172;2023-11-21T09:28:50;12.60;99.90
758;DHT22;363;48.764;9.172;2023-11-21T09:31:16;13.10;99.90
758;DHT22;363;48.764;9.172;2023-11-21T09:33:43;13.00;99.90
758;DHT22;363;48.764;9.172;2023-11-21T09:36:12;13.40;99.90
758;DHT22;363;48.764;9.172;2023-11-21T09:38:41;14.10;99.90
758;DHT22;363;48.764;9.172;2023-11-21T09:41:17;13.50;99.90
758;DHT22;363;48.764;9.172;2023-11-21T09:43:46;14.40;99.90
758;DHT22;363;48.764;9.172;2023-11-21T09:46:13;14.00;99.90
758;DHT22;363;48.764;9.172;2023-11-21T09:48:46;13.30;99.90
758;DHT22;363;48.764;9.172;2023-11-21T09:51:14;12.50;99.90
758;DHT22;363;48.764;9.172;2023-11-21T09:53:42;12.70;99.90
758;DHT22;363;48.764;9.172;2023-11-21T09:56:09;12.20;99.90
758;DHT22;363;48.764;9.172;2023-11-21T09:58:35;11.90;99.90
758;DHT22;363;48.764;9.172;2023-11-21T10:01:01;12.10;99.90
758;DHT22;363;48.764;9.172;2023-11-21T10:03:28;12.10;99.90
758;DHT22;363;48.764;9.172;2023-11-21T10:05:56;11.60;99.90
758;DHT22;363;48.764;9.172;2023-11-21T10:08:26;12.10;99.90
758;DHT22;363;48.764;9.172;2023-11-21T10:10:54;12.10;99.90
758;DHT22;363;48.764;9.172;2023-11-21T10:13:20;12.30;99.90
758;DHT22;363;48.764;9.172;2023-11-21T10:15:51;12.60;99.90
758;DHT22;363;48.764;9.172;2023-11-21T10:18:17;12.40;99.90
758;DHT22;363;48.764;9.172;2023-11-21T10:20:43;12.50;99.90
758;DHT22;363;48.764;9.172;2023-11-21T10:23:12;12.30;99.90
758;DHT22;363;48.764;9.172;2023-11-21T10:25:38;11.70;99.90
758;DHT22;363;48.764;9.172;2023-11-21T10:28:04;12.00;99.90
758;DHT22;363;48.764;9.172;2023-11-21T10:30:37;12.30;99.90
758;DHT22;363;48.764;9.172;2023-11-21T10:33:06;11.80;99.90
758;DHT22;363;48.764;9.172;2023-11-21T10:35:47;12.10;99.90
758;DHT22;363;48.764;9.172;2023-11-21T10:38:19;11.60;99.90
758;DHT22;363;48.764;9.172;2023-11-21T10:40:46;11.50;99.90
758;DHT22;363;48.764;9.172;2023-11-21T10:43:13;11.90;99.90
758;DHT22;363;48.764;9.172;2023-11-21T10:45:41;11.50;99.90
758;DHT22;363;48.764;9.172;2023-11-21T10:48:09;11.40;99.90
758;DHT22;363;48.764;9.172;2023-11-21T10:50:36;11.70;99.90
758;DHT22;363;48.764;9.172;2023-11-21T10:53:05;11.80;99.90
758;DHT22;363;48.764;9.172;2023-11-21T10:55:32;12.10;99.90
758;DHT22;363;48.764;9.172;2023-11-21T10:58:00;11.70;99.90
758;DHT22;363;48.764;9.172;2023-11-21T11:00:28;11.60;99.90
758;DHT22;363;48.764;9.172;2023-11-21T11:02:54;12.30;99.90
758;DHT22;363;48.764;9.172;2023-11-21T11:05:27;11.60;99.90
758;DHT22;363;48.764;9.172;2023-11-21T11:08:16;11.70;99.90
758;DHT22;363;48.764;9.172;2023-11-21T11:10:50;11.90;99.90
758;DHT22;363;48.764;9.172;2023-11-21T11:13:16;11.70;99.90
758;DHT22;363;48.764;9.172;2023-11-21T11:15:42;11.80;99.90
758;DHT22;363;48.764;9.172;2023-11-21T11:18:10;11.80;99.90
758;DHT22;363;48.764;9.172;2023-11-21T11:20:38;12.40;99.90
758;DHT22;363;48.764;9.172;2023-11-21T11:26:06;12.40;99.90
758;DHT22;363;48.764;9.172;2023-11-21T11:29:03;12.90;99.90
758;DHT22;363;48.764;9.172;2023-11-21T11:34:39;12.00;99.90
758;DHT22;363;48.764;9.172;2023-11-21T11:37:07;12.20;99.90
758;DHT22;363;48.764;9.172;2023-11-21T11:39:37;12.40;99.90
758;DHT22;363;48.764;9.172;2023-11-21T11:42:06;12.40;99.90
758;DHT22;363;48.764;9.172;2023-11-21T11:44:47;11.90;99.90
758;DHT22;363;48.764;9.172;2023-11-21T11:55:15;12.40;99.90
758;DHT22;363;48.764;9.172;2023-11-21T11:57:45;12.60;99.90
758;DHT22;363;48.764;9.172;2023-11-21T12:02:59;12.50;99.90
758;DHT22;363;48.764;9.172;2023-11-21T12:05:28;12.40;99.90
758;DHT22;363;48.764;9.172;2023-11-21T12:07:55;14.10;99.90
758;DHT22;363;48.764;9.172;2023-11-21T12:10:27;14.10;99.90
758;DHT22;363;48.764;9.172;2023-11-21T12:13:06;13.40;99.90
758;DHT22;363;48.764;9.172;2023-11-21T12:15:33;12.80;99.90
758;DHT22;363;48.764;9.172;2023-11-21T12:17:59;14.40;99.90
758;DHT22;363;48.764;9.172;2023-11-21T12:20:25;13.20;99.90
758;DHT22;363;48.764;9.172;2023-11-21T12:22:59;13.90;99.90
758;DHT22;363;48.764;9.172;2023-11-21T12:25:27;12.70;99.90
758;DHT22;363;48.764;9.172;2023-11-21T12:27:57;13.10;99.90
758;DHT22;363;48.764;9.172;2023-11-21T12:30:31;13.00;99.90
758;DHT22;363;48.764;9.172;2023-11-21T12:32:59;12.70;99.90
758;DHT22;363;48.764;9.172;2023-11-21T12:35:29;12.60;99.90
758;DHT22;363;48.764;9.172;2023-11-21T12:37:56;12.30;99.90
758;DHT22;363;48.764;9.172;2023-11-21T12:40:25;12.70;99.90
758;DHT22;363;48.764;9.172;2023-11-21T12:42:58;12.50;99.90
758;DHT22;363;48.764;9.172;2023-11-21T12:45:25;12.80;99.90
758;DHT22;363;48.764;9.172;2023-11-21T12:48:05;12.50;99.90
758;DHT22;363;48.764;9.172;2023-11-21T12:50:34;12.60;99.90
758;DHT22;363;48.764;9.172;2023-11-21T12:53:10;12.50;99.90
758;DHT22;363;48.764;9.172;2023-11-21T12:55:38;12.90;99.90
758;DHT22;363;48.764;9.172;2023-11-21T12:58:05;12.30;99.90
758;DHT22;363;48.764;9.172;2023-11-21T13:00:36;12.10;99.90
758;DHT22;363;48.764;9.172;2023-11-21T13:03:07;12.20;99.90
758;DHT22;363;48.764;9.172;2023-11-21T13:05:35;11.90;99.90
758;DHT22;363;48.764;9.172;2023-11-21T13:08:04;11.30;99.90
758;DHT22;363;48.764;9.172;2023-11-21T13:10:33;12.00;99.90
758;DHT22;363;48.764;9.172;2023-11-21T13:13:02;11.70;99.90
758;DHT22;363;48.764;9.172;2023-11-21T13:15:31;12.30;99.90
758;DHT22;363;48.764;9.172;2023-11-21T13:17:58;12.00;99.90
758;DHT22;363;48.764;9.172;2023-11-21T13:20:27;12.10;99.90
758;DHT22;363;48.764;9.172;2023-11-21T13:22:57;12.30;99.90
758;DHT22;363;48.764;9.172;2023-11-21T13:25:25;12.40;99.90
758;DHT22;363;48.764;9.172;2023-11-21T13:27:58;12.70;99.90
758;DHT22;363;48.764;9.172;2023-11-21T13:30:25;12.70;99.90
758;DHT22;363;48.764;9.172;2023-11-21T13:32:59;12.10;99.90
758;DHT22;363;48.764;9.172;2023-11-21T13:35:31;12.00;99.90
758;DHT22;363;48.764;9.172;2023-11-21T13:38:09;13.00;99.90
758;DHT22;363;48.764;9.172;2023-11-21T13:40:36;12.10;99.90
758;DHT22;363;48.764;9.172;2023-11-21T13:43:16;12.50;99.90
758;DHT22;363;48.764;9.172;2023-11-21T13:45:44;11.10;99.90
758;DHT22;363;48.764;9.172;2023-11-21T13:48:11;11.10;99.90
758;DHT22;363;48.764;9.172;2023-11-21T13:50:47;10.40;99.90
758;DHT22;363;48.764;9.172;2023-11-21T13:53:32;10.90;99.90
758;DHT22;363;48.764;9.172;2023-11-21T13:55:58;10.40;99.90
758;DHT22;363;48.764;9.172;2023-11-21T13:58:24;11.10;99.90
758;DHT22;363;48.764;9.172;2023-11-21T14:01:05;10.90;99.90
758;DHT22;363;48.764;9.172;2023-11-21T14:03:38;10.70;99.90
758;DHT22;363;48.764;9.172;2023-11-21T14:06:15;10.60;99.90
758;DHT22;363;48.764;9.172;2023-11-21T14:08:48;11.00;99.90
758;DHT22;363;48.764;9.172;2023-11-21T14:11:14;11.30;99.90
758;DHT22;363;48.764;9.172;2023-11-21T14:13:43;11.10;99.90
758;DHT22;363;48.764;9.172;2023-11-21T14:16:12;10.70;99.90
758;DHT22;363;48.764;9.172;2023-11-21T14:18:39;10.00;99.90
758;DHT22;363;48.764;9.172;2023-11-21T14:21:18;11.20;99.90
758;DHT22;363;48.764;9.172;2023-11-21T14:23:43;12.30;99.90
758;DHT22;363;48.764;9.172;2023-11-21T14:26:11;11.20;99.90
758;DHT22;363;48.764;9.172;2023-11-21T14:28:39;10.70;99.90
758;DHT22;363;48.764;9.172;2023-11-21T14:31:04;11.70;99.90
758;DHT22;363;48.764;9.172;2023-11-21T14:33:30;10.50;99.90
758;DHT22;363;48.764;9.172;2023-11-21T14:35:56;10.30;99.90
758;DHT22;363;48.764;9.172;2023-11-21T14:38:23;10.80;99.90
758;DHT22;363;48.764;9.172;2023-11-21T14:40:48;9.70;99.90
758;DHT22;363;48.764;9.172;2023-11-21T14:43:15;12.10;99.90
758;DHT22;363;48.764;9.172;2023-11-21T14:45:41;11.20;99.90
758;DHT22;363;48.764;9.172;2023-11-21T14:48:06;10.60;99.90
758;DHT22;363;48.764;9.172;2023-11-21T14:50:42;12.00;99.90
758;DHT22;363;48.764;9.172;2023-11-21T14:53:31;10.90;99.90
758;DHT22;363;48.764;9.172;2023-11-21T14:56:21;11.20;99.90
758;DHT22;363;48.764;9.172;2023-11-21T14:58:56;10.50;99.90
758;DHT22;363;48.764;9.172;2023-11-21T15:01:23;10.60;99.90
758;DHT22;363;48.764;9.172;2023-11-21T15:04:07;10.70;99.90
758;DHT22;363;48.764;9.172;2023-11-21T15:06:34;10.50;99.90
758;DHT22;363;48.764;9.172;2023-11-21T15:09:00;10.70;99.90
758;DHT22;363;48.764;9.172;2023-11-21T15:11:32;10.30;99.90
758;DHT22;363;48.764;9.172;2023-11-21T15:13:58;10.70;99.90
758;DHT22;363;48.764;9.172;2023-11-21T15:16:24;10.60;99.90
758;DHT22;363;48.764;9.172;2023-11-21T15:18:54;10.50;99.90
758;DHT22;363;48.764;9.172;2023-11-21T15:21:21;10.90;99.90
758;DHT22;363;48.764;9.172;2023-11-21T15:23:47;11.10;99.90
758;DHT22;363;48.764;9.172;2023-11-21T15:26:13;11.30;99.90
758;DHT22;363;48.764;9.172;2023-11-21T15:28:39;10.30;99.90
758;DHT22;363;48.764;9.172;2023-11-21T15:31:05;11.90;99.90
758;DHT22;363;48.764;9.172;2023-11-21T15:33:32;11.00;99.90
758;DHT22;363;48.764;9.172;2023-11-21T15:35:59;10.90;99.90
758;DHT22;363;48.764;9.172;2023-11-21T15:38:25;11.00;99.90
758;DHT22;363;48.764;9.172;2023-11-21T15:40:50;12.50;99.90
758;DHT22;363;48.764;9.172;2023-11-21T15:43:16;12.10;99.90
758;DHT22;363;48.764;9.172;2023-11-21T15:45:43;11.60;99.90
758;DHT22;363;48.764;9.172;2023-11-21T15:48:08;10.60;99.90
758;DHT22;363;48.764;9.172;2023-11-21T15:50:37;11.00;99.90
758;DHT22;363;48.764;9.172;2023-11-21T15:53:02;10.70;99.90
758;DHT22;363;48.764;9.172;2023-11-21T15:55:30;10.50;99.90
758;DHT22;363;48.764;9.172;2023-11-21T15:57:56;11.70;99.90
758;DHT22;363;48.764;9.172;2023-11-21T16:00:21;10.60;99.90
758;DHT22;363;48.764;9.172;2023-11-21T16:02:49;10.50;99.90
758;DHT22;363;48.764;9.172;2023-11-21T16:05:15;10.70;99.90
758;DHT22;363;48.764;9.172;2023-11-21T16:07:42;10.80;99.90
758;DHT22;363;48.764;9.172;2023-11-21T16:10:08;10.50;99.90
758;DHT22;363;48.764;9.172;2023-11-21T16:12:36;10.40;99.90
758;DHT22;363;48.764;9.172;2023-11-21T16:15:04;10.50;99.90
758;DHT22;363;48.764;9.172;2023-11-21T16:17:37;10.30;99.90
758;DHT22;363;48.764;9.172;2023-11-21T16:20:05;10.80;99.90
758;DHT22;363;48.764;9.172;2023-11-21T16:22:43;10.30;99.90
758;DHT22;363;48.764;9.172;2023-11-21T17:06:06;11.00;99.90
758;DHT22;363;48.764;9.172;2023-11-21T17:08:36;10.50;99.90
758;DHT22;363;48.764;9.172;2023-11-21T17:11:04;10.80;99.90
758;DHT22;363;48.764;9.172;2023-11-21T19:06:50;10.40;99.90
758;DHT22;363;48.764;9.172;2023-11-21T19:09:26;9.10;99.90
758;DHT22;363;48.764;9.172;2023-11-21T19:15:58;10.30;99.90
758;DHT22;363;48.764;9.172;2023-11-21T19:18:31;10.30;99.90
758;DHT22;363;48.764;9.172;2023-11-21T19:20:57;11.80;99.90
758;DHT22;363;48.764;9.172;2023-11-21T19:23:25;10.80;99.90
758;DHT22;363;48.764;9.172;2023-11-21T19:25:57;11.10;99.90
758;DHT22;363;48.764;9.172;2023-11-21T19:32:07;10.70;99.90
758;DHT22;363;48.764;9.172;2023-11-21T19:38:41;10.20;99.90
758;DHT22;363;48.764;9.172;2023-11-21T19:41:32;11.50;99.90
758;DHT22;363;48.764;9.172;2023-11-21T19:47:24;10.80;99.90
758;DHT22;363;48.764;9.172;2023-11-21T19:50:06;10.30;99.90